警務消防

2020/09/11

令和2年度富山空港消火救難訓練 2020.9.11 fri

ぐっぅども~にんぐTOYAMA

時刻は5時前、こんなに早く空港に来たのは、新石垣空港開港の日以来かもしれない。

20200911_rjnt_00fireex

滑走路灯は、すでに点灯しています。

20200911_rjnt_01fireex

夜明け前の空、天頂ちかくにお月様

20200911_rjnt_02fireex

続々訓練参加車両がやって来ます。

20200911_rjnt_03fireex

5時を廻り、少し明るくなってきました。

20200911_rjnt_04fireex

空ビル開放は、無。

20200911_rjnt_05fireex

5時30分 事故発生 空港消防が出動

20200911_rjnt_06fireex

医療作業車も続きます。

20200911_rjnt_07fireex

###

 

###

従来は、停泊している全日空の実機を使って訓練していましたが、このご時世で、泊り便が無く、エアバスがその任に。

20200911_rjnt_08fireex

近隣消防が駆けつけます。富山市消防局から本署、中分署、南部派、婦中、大沢野等

20200911_rjnt_09fireex

近隣消防団も集結。

新保、大久保、堀川、鵜坂、熊野、蜷川、婦中熊野、宮川

20200911_rjnt_10fireex

分団さんは、平日の早朝からご苦労様です。主に空港防火水槽から、放水隊への給水中継。

20200911_rjnt_11fireex

空港化学消防車は3台。タンクが空になると、給水場所に退避して給水。すかさず前線に復帰します。

20200911_rjnt_12fireex

医療関係は、県中、赤十字、市民

20200911_rjnt_13fireex

状況終了。空化は残水処理、乗客役の関係者が徒歩で引き上げてきます。

20200911_rjnt_14fireex

指揮車も引き上げて・・

102110Z 21002KT 9999 FEW002 SCT/// 21/21 Q1014 RMK 1ST002 A2995

20200911_rjnt_15fireex

順列

この後、閉会式をもって終了。小生は、お仕事のため離脱。

期待された新しい防災ヘリは参加しませんでした。残念。

 

| | コメント (0)

2020/09/08

訓練 富山空港他 2020/9/8 tue

台風10号により被害は、ありませんでした。ただ、吹き返しに伴うフェーンで酷暑が続いています。

RJNT 052300Z 16003KT 080V220 9999 FEW020 SCT150 BKN200 29/24 Q1009

20200908_0rjnt_00ja84an

ANA313 RJTT-RJNT JA84AN B737-881

RJNT 060000Z 21004KT 150V240 9999 FEW020 BKN220 29/23 Q1009

20200908_0rjnt_01ja84an

こんな日は、遠くが近い

20200908_0rjnt_02ja84an

20200908_0rjnt_03ja84an

ANA316 RJNT-RJTT JA84AN B737-881

20200908_0rjnt_04ja119w

今日は、午前から訓練へ

20200908_0rjnt_05ja119w

JA119W↑ AW139 富山県消防防災

RJNT 060100Z VRB02KT 9999 FEW020TCU SCT220 32/22 Q1009

今日は、他に外来機もなさそうなので、ちょっと遠足。

20200908_1nanto_06ja119w

夏雲の上に飛んでます。

RJNT 060200Z VRB02KT 9999 FEW020TCU 33/23 Q1008

20200908_1nanto_07ja119w

20200908_1nanto_08ja119w

南砺消防署で連携訓練です。

20200908_1nanto_09ja119w

搬送手順の確認 ヘリに近づく時は、身を低くして・・

20200908_1nanto_10ja119w

何回か同じパターンを繰り返します。

20200908_1nanto_11ja119w

これで、一応の課目は終わりの様です。

20200908_1nanto_12ja119w

20200908_1nanto_13ja119w

最後に吊り上げを展示して・・

20200908_1nanto_14ja119w

帰投です。

20200908_1nanto_15nantofd

訓練の講評・・

20200908_1nanto_16nantofd

キーワードは、メモ

RJNT 060300Z 03007KT 350V070 9999 FEW025TCU SCT100 33/24 Q1008

さて、小生も撤収

20200908_2rjnt_17ja119w

空港に戻ると、とやまさんが南向きに駐機

RJNT 060400Z 02006KT 350V060 9999 VCSH FEW025TCU 33/24 Q1007

20200908_2rjnt_18ja6512

JA6512↓ AS350B3 AKF

20200908_2rjnt_19ja119w

午後は、自隊訓練の模様

20200908_2rjnt_20ja119w

暑さに負けずに、ファイト

###

 

| | コメント (0)

2020/09/03

定点 富山空港他 2020/9/3 thu

RJNT 022300Z VRB08G22KT 9999 VCSH FEW020 SCT180 BKN/// 33/21 Q1003

20200903_rjnt_00nitsutanmaru21

第二十一日丹丸 JG5645

20200903_rjnt_01wakayoshimaru2

第二若吉丸 JD2262

20200903_rjnt_02ja56an

ANA313 RJTT-RJNT JA56AN B737-881

RJNT 030000Z 18013G25KT 110V210 9999 FEW020 SCT/// 33/22 Q1004

20200903_rjnt_03ja56an

まあまあ強い南風

20200903_rjnt_04ja56an

フェーンの空で、視程が効いています。

20200903_rjnt_05ja56an

20200903_rjnt_06ja56an

ANA316 RJNT-RJTT JA56AN B737-881

20200903_rjnt_07ja56an

彩度の上がった青空

RJNT 030100Z 18015G29KT 110V230 9999 FEW030 SCT060 BKN/// 35/22 Q1004

さて、ちょっと転戦

20200903_rjnt_08ja119w

空港に着く前にお出かけした「とやま」さんを追っかけて・・

20200903_rjnt_09mizube

昨日に引き続いて、富山市消防局大沢野消防署、八尾消防署と富山県防災航空隊との連携訓練。

20200903_rjnt_10ja119w

三連荘の連携訓練

20200903_rjnt_11ja119w

けが人を搬送する訓練が続いています。

20200903_rjnt_12ja119w

今日は南風なので、北側からアプローチ

20200903_rjnt_13ja119w

適格な手順と動作で安全第一

RJNT 030200Z 21015G25KT 180V280 9999 FEW030 SCT050 BKN/// 35/22 Q1004

20200903_rjnt_14ja119w

続いて、ファイアーアタッカーへの給水訓練

20200903_rjnt_15ja119w

ちょびっとだけ入れて、放水

20200903_rjnt_16ja119w

最後に盛大にお手振りして、訓練会場から帰投

20200903_rjnt_17ja119w

訓練終了訓示 お疲れ様でした。

20200903_rjnt_18mizube

なにげに、高山線の撮影ポイント

20200903_rjnt_19ja119w

空港に戻ると、給油中

20200903_rjnt_20ja119w

訓練が終わって、ファイアーアタッカーの取り外し。これが一番大変じゃー。

20200903_rjnt_21ja119w

ゴロゴロ 139は向いてないのかもね

暑さの中、お疲れさまでした。

| | コメント (0)

2020/08/22

富山県消防防災ヘリコプター水難救助訓練 上市町 2020/8/18 tue

酷暑が続く夏の昼下がり、新消防防災ヘリコプター「とやま」による初めての水難救助訓練が実施されました。

RJNT 180400Z 36009KT 9999 FEW030 BKN/// 31/24 Q1012

20200818_kami2_00ja119w

井上陽水の「少年時代」を彷彿するような、夏空のダムサイト。

20200818_kami2_01ja119w

富山空港から10分で、「とやま」さんがやって来ました。

20200818_kami2_02ja119w

空中消火関係の訓練で何度も来ているので、すぐアプローチに入ります。

20200818_kami2_03ja119w

高度処理をして、南側から訓練場にアプローチ

20200818_kami2_04ja119w

RJNT 180500Z 36009KT 9999 FEW030 BKN/// 32/23 Q1011

20200818_kami2_05ja119w

最初に要救助者役を投入

20200818_kami2_06ja119w

一周して、救助シーケンスに入ります。

20200818_kami2_07ja119w

救助員をホイストで降ろしながら、要救助者に近づきます。まるで、空中サーカスの様。

20200818_kami2_08ja119w

要救助者の傍らに着水。この辺が技ありですかね。

20200818_kami2_09ja119w

要救助者に手際よくハーネスを廻して・・

20200818_kami2_10ja119w

吊り上げ

20200818_kami2_11ja119w

20200818_kami2_12ja119w

収容。この後再度要救を投入して、吊り上げ救助。吊り上げたまま、陸地にホイストで降ろして、一ソーティが終了です。

20200818_kami2_13ja119w

一回目が終わって、一旦着陸。

20200818_kami2_14ja119w

20200818_kami2_15ja119w

ワッペンは119Wになってますが、隊長さんのヘルメットに6768。

20200818_kami2_16ja119w

訓練要員の交代して、二回目へ

20200818_kami2_17ja119w

プロペラからペイパーが出ています。

20200818_kami2_18ja119w

二回目要救ドボン

20200818_kami2_19ja119w

救助アプローチ

20200818_kami2_20ja119w

吊り上げたまま、陸地へ

20200818_kami2_21ja119w

ホイスト降下

20200818_kami2_22ja119w

隊員のヘルメットカメラには、どんな映像が?

20200818_kami2_23ja119w

着地

20200818_kami2_24ja119w

交代に着陸

20200818_kami2_25ja119w

###whitewing681さんの動画###

###

三回目訓練へ離陸

20200818_kami2_26ja119w

20200818_kami2_27ja119w

別のアングルから

20200818_kami2_28ja119w

20200818_kami2_29ja119w

腰に無線機を装備していますが、水没しても大丈夫?

20200818_kami2_30ja119w

手際よく収容

20200818_kami2_31ja119w

20200818_kami2_32ja119w

最後の投入

20200818_kami2_33ja119w

要救の傍にいるのは、安全要員で、もしもの場合に備えて、浮き輪を持って待機しています。

20200818_kami2_34ja119w

20200818_kami2_35ja119w

20200818_kami2_36ja119w

20200818_kami2_37ja119w

無事、3回の救出訓練が終わり・・

20200818_kami2_38ja119w

20200818_kami2_39ja119w

ファウエルへ

20200818_kami2_40ja119w

最後は盛大なお手振りで、お別れです。

20200818_kami2_41ja119w

活躍のないことを、お祈りいたします。

もしもの場合の消防防災航空隊です。

夏が過ぎ、風あざみ♪

| | コメント (0)

2020/07/11

定点 富山空港 2020/7/11 sat

梅雨前線は上がったり、下がったりで雨が降ったり、急に暑くなったりで、変化が激しいです。が、今のところ水害は無く、穏やかな天候です。

RJNT 102317Z 24006KT 190V280 9999 -SHRA FEW010 SCT050 BKN070 25/22 Q1003 RMK 1CU010 3SC050 6AC070 A2964

20200711_rjnt_00syomyo

大雨警報が出ていますが、山岳地帯が範囲ですね。現在、称名瀑布は、四本の滝が見られます。

20200711_rjnt_01ja03an

まだまだ泥色の川面

20200711_rjnt_02ja03an

20200711_rjnt_03ja03an

ANA313 RJTT-RJNT JA03AN B737-781

20200711_rjnt_04ja03an

湿度が高く、雲が沸きます。

RJNT 110000Z 21006KT 9999 VCSH FEW010 BKN050 BKN070 26/24 Q1004

20200711_rjnt_05ja03an

中洲は生き延びてしまいました。

20200711_rjnt_06ja03an

ANA316 RJNT-RJTT JA03AN B737-781

RJNT 110100Z 31003KT 280V340 9999 VCSH FEW010 BKN060 BKN160 28/24 Q1003

20200711_rjnt_07ja17ac

さてーと思ったら、ドクヘリ事案。

20200711_rjnt_08ja17ac

サポートは火災保険号

20200711_rjnt_09ja17ac

現場手当で、へり搬送無し。

20200711_rjnt_10ja17ac

JA17AC A109SP SAK 富山県ドクターヘリ

###

 

###

20200711_rjnt_11ja6502

JA6502↓ AS350B3 AKF

昨日、能登でGTBした JA74AN は、お昼に東京にフェリーされました。

 

| | コメント (0)

2020/06/20

定点 富山空港 2020/6/20 sat

RJNT 192300Z 01007KT 9999 -SHRA FEW005 SCT015 BKN025 19/16 Q1011

たまたま休みが続いて、ちょい早めに空港。

20200620_rjnt_00ja9690

JA9690 AS332L AKF

昨日整備していたスパビューさんが出発です。

###

 

###

20200620_rjnt_01ja219a

この時期には珍しい北風で、サークリング

20200620_rjnt_02ja219a

320NEO 富山では初撮影

20200620_rjnt_03ja219a

空港の保安車が急いで02エンドへ

20200620_rjnt_04ja219a

いい捻り

20200620_rjnt_05ja219a

20200620_rjnt_06ja219a

ANA313 RJTT-RJNT JA219A A320-271N

20200620_rjnt_07ja219a

トンビさん危機一髪 しばらく大型機が来なかったので、鳥の天下になっています。

20200620_rjnt_08ja219a

これは静かです。

20200620_rjnt_09ja219a

搭乗客は40人ぐらい

20200620_rjnt_10ja01ad

調子が悪いのか、まだいる JA01AD

RJNT 200000Z 01007KT 9999 -SHRA FEW005 SCT015 BKN025 19/15 Q1011

20200620_rjnt_11ja219a

20200620_rjnt_12ja219a

20200620_rjnt_13ja219a

ANA316 RJNT-RJTT JA219A A320-271N

20200620_rjnt_14ja219a

そのうちバードストライク起こりそう

RJNT 200100Z 04005KT 360V070 9999 VCSH FEW005 SCT015 BKN025 20/14 Q1012

20200620_rjnt_15ja17ac

定期便が行ってからドクヘリ事案

20200620_rjnt_16fdp

患者さんは救急車で医師同乗で直接病院へ

20200620_rjnt_17ja17ac

現場に残った要員を回収して

20200620_rjnt_18ja17ac

JA17AC A109SP SAK 富山県ドクターへり

###

 

###

20200620_rjnt_19ja17ac

富大病院へ

RJNT 200200Z 01004KT 350V050 9999 -SHRA FEW005 SCT015 BKN025 20/16 Q1012

20200620_rjnt_20ja17ac

富大病院HP 搬送した救急車が引き上げていきます。

20200620_rjnt_21ja17ac

ドクターが戻ってきて、エンジンスタート

###

 

###

RJNT 200300Z 02007KT 350V060 9999 VCSH FEW005 SCT015 BKN025 20/15 Q1011

20200620_rjnt_22ja6506

JA6506 AS350B3 AKF

午後は、これにて引き上げ。夕方 JA9785 つくば航空が来ました。

 

| | コメント (0)

2020/05/30

定点 富山空港 2020/5/30 sat

昨日は、東京の都心をブルーインパルスが、医療従事者等への感謝を表す航過飛行が大人気でした。奇しくも当地では、その時間に富山県ドクターヘリさんが、実任務で飛行していました。すっかり身近になり、すぐ来てくれる重要な資源となっています。

RJNT 292300Z 21003KT 130V280 9999 FEW020 20/13 Q1020

20200530_rjnt_00ja17ac

小生の感謝の意は、そんなドクヘリさんを地道に記録するところ。

20200530_rjnt_01ja17ac

JA17AC A109SP SAK 富山県ドクターヘリ

今朝の御出勤

RJNT 300000Z VRB04KT 9999 FEW020 21/09 Q1020

20200530_rjnt_02ja9411

空港では、昨日来た中日本さんが出発

20200530_rjnt_03ja9411

JA9411 AS350B NNK

20200530_rjnt_04fav

救急医療搬送車が朝のランニング

RJNT 300100Z 36007KT 320V060 9999 FEW020 23/13 Q1020

20200530_rjnt_05ohlwl

FIN78 RJBB-EFHK OH-LWL A350-941

20200530_rjnt_06ja9411

JA9411↓

RJNT 300200Z 36009KT 9999 FEW020 23/12 Q1020

20200530_rjnt_07ja2410

JA6512↓ AS350B3 AKF

 

| | コメント (0)

2020/05/26

定点 富山空港他 2020/5/26 tue

緊急事態宣言が解除されたとは言え、社会生活が以前の様に戻るはずもなく、まだまだ空港は閑古鳥が鳴いています。さて、昨日新潟の第九管区から大和堆へ保安船団が出航したとのことで、地元連の動向を確認に廻ってみた。

RJNT 260000Z VRB02KT 9999 FEW015 BKN/// 23/18 Q1008

20200526_fushiki_00ps203

PS203「のりくら」さんは在港

20200526_fushiki_01bird

釣りのおじさんが投げたお魚で朝食中の烏さん

20200526_fushiki_02bird

この子も欲しそうに眺めていましたが・・

20200526_fushiki_03ps203

烏さんが一寸目を離した隙にトンビさんがさらっていきました。

20200526_fushiki_04toyomaru33

第三十三東洋丸 大和海運(旭タンカー) JD3728

20200526_fushiki_05ps203

「のりくら」さんから搭載ボートが降ろされて

20200526_fushiki_06ps203

ボートの操縦訓練の模様です。

20200526_fushiki_07tateyama

伏木税関の監視船「たてやま」出航です。

20200526_fushiki_08tateyama

動いているのを見れてラッキー。それにしても万葉埠頭に建設中のコレ、何もの?

20200526_fushiki_09fushikilh

伏木指向灯

20200526_fushiki_10ps203m1

丁度沖合に海保ボート

20200526_fushiki_11ps203m1

スラロームで波を蹴立ててGO

20200526_fushiki_12fushikilh

今年の夏の海のイベントは、すでに中止が決まっています。

RJNT 260100Z 36006KT 280V040 9999 FEW020 BKN025 BKN/// 24/18 Q1008

20200526_fushiki_13kaioumaru

海王丸は、公開が再開しています。

20200526_fushiki_14kaioumaru

それでも人影は少なく、ひっそり。

20200526_fushiki_15pl04

PL04「やひこ」さん

これにて海は終わりにして、河原に転戦。

19RJNT 260200Z 28005KT 230V340 9999 FEW020 SCT025 OVC/// 24/17 Q1007

20200526_rjnt_00ja17ac

「つるぎ」さんの到着を待っていたら、ドクヘリ事案

20200526_rjnt_01ja139t

お山を廻ってきた模様。

20200526_rjnt_02ja139t

JA139T AW139 富山県警察

20200526_rjnt_03ja17ac

ドクヘリ事案に急行

20200526_rjnt_04ja17ac

収容され、県中搬送

###

 

###

20200526_rjnt_05fdp

今回は、南部出張所コンビ

RJNT 260300Z 33006KT 290V360 9999 FEW020 SCT030 OVC/// 25/17 Q1007

20200526_rjnt_06ja6512

JA6512↓ AS350B3 AKF

RJNT 260500Z 28011KT 9999 VCSH FEW020 SCT030 OVC/// 25/18 Q1007

20200526_rjnt_07ja9439

JA9439 Fuji204B-2 SNK RJNT↓

お家に帰ったら、遠くから地獄の黙示録。アビームに来ると単なるエンジン音だけになっちゃいますけど。

| | コメント (0)

2020/05/23

捜索 滑川市 2020/5/23 sat

本日は、お家でまったり総火演でも見ようかと思っていたら、早朝から何やら姦しい。

RJNT 222200Z VRB02KT 9999 FEW003 SCT008 BKN110 16/14 Q1014

20200523_namerikawa_00ja139t

最初は、山かなって思っていたのですが、どうやら海

20200523_namerikawa_01ja139t

早々に朝飯を掻き込んで、現場探しに

20200523_namerikawa_02pl04

沖合には、PL04「やひこ」さんが

20200523_namerikawa_03tsurugi

漁業監視船「つるぎ」も捜索に参加していたようで、撤収

RJNT 222300Z VRB02KT 9999 FEW005 BKN110 17/14 Q1014

20200523_namerikawa_04ja139t

JA139T AW139 富山県警察「つるぎ」

沿岸をゆっくり舐めるように捜索中

20200523_namerikawa_05ja139t

「つるぎ」さんの前には、海保さんが捜査。富山空港へ朝食に行っています。

20200523_namerikawa_06oyamamaru

富山県東部消防組合の救助艇「雄山丸」

20200523_namerikawa_07ja139t

「つるぎ」さんも一旦撤収

20200523_namerikawa_08pl04

現場に近づくと・・

20200523_namerikawa_09sensui

東部消防の潜水隊が捜索中でした。

20200523_namerikawa_10pl04

「雄山丸」撤収

20200523_namerikawa_11tateyamamaru

滑川漁港には県水産研究所の調査船「立山丸」が係留されています。

20200523_namerikawa_12sensui

潜水隊撤収 どうやら、釣り人が突堤から落ちた模様とのこと

20200523_namerikawa_13ja970a

空港で給油した海保「らいちょう2号」が捜索復帰

20200523_namerikawa_14ja970a

JA970A AW139 JCG

20200523_namerikawa_15genba

現場はこちら キラリン灯台のところ

20200523_namerikawa_16ja970a

一旦沿岸を捜索して、少し沖あいを西へ

20200523_namerikawa_17ja970a

早朝からご苦労様ですね。

RJNT 230000Z VRB01KT 9999 FEW005 SCT100 BKN120 19/15 Q1013

20200523_namerikawa_18ja970a

後の情報として、事案発生は昨日夕方とのこと

20200523_namerikawa_19pl04

船舶での捜索は中断して、空からの捜索のみになったようです。

20200523_namerikawa_20pl04

総火演の時間が迫ってきたので、撤収しました。

この後、「つるぎ」さんが再度捜索に出てましたが、見つかっていないようです。

| | コメント (0)

2020/05/21

定点 富山空港 2020/5/21 thu

5月14日に新型コロナウイルスに関する緊急事態宣言の一部解除され、富山県は現在「Stage2」の措置実施中。

富山空港の定期便は、現在国内国際とも全部運休は継続です。なお本日発表があり、羽田線は6月16日から一往復のみ復活するようです。

RJNT 210100Z VRB02KT 9999 FEW020 SCT050 BKN070 17/10 Q1013

20200521_rjnt_00ja139t

JA139T↑ AW139 富山県警察

20200521_rjnt_01ja139t

今日も、山岳訓練の模様。

20200521_rjnt_02terminal

そんな富山空港ターミナルを確認。出入国管理庁の事務所は営業中なので、それらのお客さんが出入りしています。

20200521_rjnt_03terminal

到着情報ボードは、全便掲示されていますが、ステータスが運休

20200521_rjnt_04terminal

全日空カウンターも開店休業

20200521_rjnt_05terminal

便情報は運休

20200521_rjnt_06terminal

出発ゲートは、始発便の状態でシャッターが降りたまま。

20200521_rjnt_07terminal

出発ボードも到着と同様

20200521_rjnt_08terminal

飲食店は喫茶以外は休業中

20200521_rjnt_09terminal

一応、デッキには昇れます。

20200521_rjnt_10terminal

GSEは勢ぞろいして展示じゃない、駐車中。

20200521_rjnt_11terminal

エレベータは4人までよ・・ 爪楊枝はありませんでした。

20200521_rjnt_12terminal

雪の大谷は、お客さんもなく寂しそう。

20200521_rjnt_13terminal

国際線カウンターは閉鎖中

RJNT 210200Z 28008KT 240V330 9999 FEW025 SCT050 BKN070 18/11 Q1013

20200521_rjnt_14shikibousaikan

四季防災館は、5月20日から再開しました。

20200521_rjnt_15shikibousaikan

消防学校は座学中か、ひっそり

20200521_rjnt_16shikibousaikan

学校所属車両がずらーり。

20200521_rjnt_17shikibousaikan

四季防災館入り口前

20200521_rjnt_18shikibousaikan

JA6768さんの写真は健在でした。

20200521_rjnt_19shikibousaikan

防災ヘリコプターの展示コーナー

20200521_rjnt_20shikibousaikan

テールローターのところに新「とやま」さん

20200521_rjnt_21shikibousaikan

20200521_rjnt_22shikibousaikan

また、ちびっ子の声が木霊するとイイね。

20200521_rjnt_23shikibousaikan

通常とおりに展示、体験できますので、密にならない人数でご利用ください。

RJNT 210300Z 27007KT 220V320 9999 FEW020 SCT030 BKN050 18/11 Q1013

20200521_rjnt_24ja139t

「つるぎ」さん ご帰還

20200521_rjnt_25ja139t

20200521_rjnt_26ja139t

午後からも、他のミッションへ

20200521_rjnt_27ja17ac

JA17AC A109SP SAK 富山県ドクヘリ

ドクヘリさんは代替機での運用中

午後に JA9965 珍しいスパビューさんが飛来されました。

| | コメント (0)

より以前の記事一覧

その他のカテゴリー

BI Boading record aircraft Boading record ship FlightTracking lighthouse NAVAIDS RJNT LOG SKY MASSAGE US NAVY USMC うみ おか そら てつ アクシデント エアロック チーム室屋 三沢飛行場 上五島空港 下地島空港 下総飛行場 与論空港 与那国空港 中標津空港 中部国際空港 久米島空港 五島福江空港 仙台空港 伊江島空港 但馬空港 佐賀空港 入間飛行場 八尾空港 八戸飛行場 出雲空港 函館空港 利尻空港 北九州空港 北大東空港 十勝飛行場 千歳飛行場 南大東空港 博物館 厚木飛行場 名古屋飛行場 喜界空港 嘉手納飛行場 場外 壱岐空港 多良間空港 大分空港 大湊飛行場 大阪国際空港 大館能代空港 天草空港 奄美空港 奥尻空港 宇部山口空港 宇都宮飛行場 宮古空港 宮崎空港 富山空港 対馬空港 小松島飛行場 小松飛行場 屋久島空港 山形空港 岐阜飛行場 岡南飛行場 岡山空港 岩国飛行場 帯広空港 広島空港 庄内空港 徳之島空港 徳島飛行場 成田国際空港 新島空港 新潟空港 新田原飛行場 旭川空港 旭川飛行場 明野飛行場 普天間飛行場 木更津飛行場 札幌飛行場 東京国際空港 松山空港 松島飛行場 松本空港 横田飛行場 沖永良部空港 波照間空港 浜松飛行場 海上保安庁 海上自衛隊 海外 熊本空港 百里飛行場 相馬原飛行場 石垣空港 石見空港 礼文空港 神戸空港 神津島空港 福井空港 福岡空港 福島空港 秋田空港 稚内空港 種子島空港 空撮 立川飛行場 築城飛行場 粟国空港 美保飛行場 能登空港 舞鶴飛行場 航空自衛隊 芦屋飛行場 花巻空港 調布飛行場 警務消防 那覇空港 釧路空港 長崎空港 関西国際空港 陸上自衛隊 隠岐空港 霞ヶ浦飛行場 霞目飛行場 青森空港 静岡空港 静浜飛行場 飛行場跡 飛行船 鹿児島空港 鹿屋飛行場